Presque Isle, MI (49777)

3:23 PM EDT on April 25, 2015 (GMT -0400)
Lotus Lake | | Change Station
CLOSE
Current Station
Personal Weather Station
Location: Presque Isle, MI
Elevation: 617 ft
Nearby Weather Stations

Elev 617 ft 45.30 °N, 83.48 °W | Updated 1 minute ago

Clear
Clear
49.3 °F
Feels Like 49 °F
N
3.2
Wind Variable Wind from ESE

Today
High -- | Low -- °F
--% Chance of Precip.
Yesterday
High -- | Low -- °F
Precip. -- in
6:32 AM 8:32 PM
Waxing Crescent, 48% visible
Pressure 29.95 in
Visibility 10.0 miles
Clouds Clear
Windchill 49 °F
Dew Point 25 °F
Humidity 39%
Rainfall 0.00 in
Snow Depth Not available.
UV 8 out of 12
Pollen 6.80 out of 12
Air Quality Not available.
Flu Activity Regional
METAR KPZQ 251915Z AUTO 06004KT 10SM CLR 06/M04 A2995 RMK AO2 T00631041

More Conditions Fewer Conditions

Pressure 29.95 in
Visibility 10.0 miles
Clouds Clear
Windchill 49 °F
Dew Point 25 °F
Humidity 39%
Rainfall 0.00 in
Snow Depth Not available.
UV 8 out of 12
Pollen 6.80 out of 12
Air Quality Not available.
Flu Activity Regional
METAR KPZQ 251915Z AUTO 06004KT 10SM CLR 06/M04 A2995 RMK AO2 T00631041

More Conditions Fewer Conditions

Nowcast | as of 3:00 PM EDT on April 25, 2015

At 4 PM...clear. Temperature 44. East winds 7 mph. At 6 PM...clear. Temperature 45. Northeast winds 6 mph. At 8 PM...clear. Temperature 41. Light winds. At 10 PM...partly cloudy. Temperature 38. Light winds.

×

10-Day Weather Forecast

Almanac

Astronomy

Apr. 25, 2015 Rise Set
Actual Time
Civil Twilight
Nautical Twilight
Astronomical Twilight
Moon
Length of Visible Light
Length of Day
Tomorrow will be .
, % of the Moon is Illuminated

Today's Extremes

State Highs State Lows

Community

WunderPhotos

Upload Photos

1,816,781 photos uploaded!

WunderBlogs® & News

Nearby

Air Quality

  Air Quality AQ Index Pollutant
Not available.

Snow Depth

Station Depth Elevation

Earthquake Activity

City Distance Mag. Time & Date
Minimum magnitude displayed is 2.5.

Coastal Water Temperatures

Place Temperature

Stations

Nearby Weather Stations

Station Location Temp. Windchill Dew Point Humidity Wind Precip. Elev Updated Type